sensor_id;sensor_type;location;lat;lon;timestamp;P1;durP1;ratioP1;P2;durP2;ratioP2
30743;SDS011;17486;46.738;7.622;2022-09-12T00:01:08;1.33;;;1.10;;
30743;SDS011;17486;46.738;7.622;2022-09-12T00:03:41;5.25;;;1.33;;
30743;SDS011;17486;46.738;7.622;2022-09-12T00:06:08;1.48;;;1.25;;
30743;SDS011;17486;46.738;7.622;2022-09-12T00:08:42;2.08;;;1.20;;
30743;SDS011;17486;46.738;7.622;2022-09-12T00:11:08;1.08;;;0.98;;
30743;SDS011;17486;46.738;7.622;2022-09-12T00:13:35;2.65;;;1.10;;
30743;SDS011;17486;46.738;7.622;2022-09-12T00:16:02;1.33;;;1.15;;
30743;SDS011;17486;46.738;7.622;2022-09-12T00:18:29;5.18;;;1.23;;
30743;SDS011;17486;46.738;7.622;2022-09-12T00:20:54;1.10;;;1.00;;
30743;SDS011;17486;46.738;7.622;2022-09-12T00:23:19;3.17;;;1.23;;
30743;SDS011;17486;46.738;7.622;2022-09-12T00:25:46;1.30;;;1.20;;
30743;SDS011;17486;46.738;7.622;2022-09-12T00:28:13;3.00;;;1.67;;
30743;SDS011;17486;46.738;7.622;2022-09-12T00:30:40;1.88;;;1.40;;
30743;SDS011;17486;46.738;7.622;2022-09-12T00:33:10;1.67;;;1.00;;
30743;SDS011;17486;46.738;7.622;2022-09-12T00:35:42;2.10;;;1.30;;
30743;SDS011;17486;46.738;7.622;2022-09-12T00:38:09;2.58;;;1.13;;
30743;SDS011;17486;46.738;7.622;2022-09-12T00:40:35;1.23;;;1.05;;
30743;SDS011;17486;46.738;7.622;2022-09-12T00:43:00;1.60;;;1.17;;
30743;SDS011;17486;46.738;7.622;2022-09-12T00:45:27;0.95;;;0.95;;
30743;SDS011;17486;46.738;7.622;2022-09-12T00:47:53;1.77;;;1.13;;
30743;SDS011;17486;46.738;7.622;2022-09-12T00:50:21;1.27;;;1.17;;
30743;SDS011;17486;46.738;7.622;2022-09-12T00:52:50;2.00;;;1.00;;
30743;SDS011;17486;46.738;7.622;2022-09-12T00:55:26;4.45;;;1.45;;
30743;SDS011;17486;46.738;7.622;2022-09-12T00:58:00;1.17;;;0.90;;
30743;SDS011;17486;46.738;7.622;2022-09-12T01:00:36;3.10;;;1.30;;
30743;SDS011;17486;46.738;7.622;2022-09-12T01:03:12;2.38;;;1.20;;
30743;SDS011;17486;46.738;7.622;2022-09-12T01:05:41;1.58;;;1.02;;
30743;SDS011;17486;46.738;7.622;2022-09-12T01:08:11;2.45;;;1.20;;
30743;SDS011;17486;46.738;7.622;2022-09-12T01:10:37;1.67;;;1.10;;
30743;SDS011;17486;46.738;7.622;2022-09-12T01:13:05;3.03;;;1.25;;
30743;SDS011;17486;46.738;7.622;2022-09-12T01:15:32;3.17;;;1.00;;
30743;SDS011;17486;46.738;7.622;2022-09-12T01:20:49;1.35;;;1.20;;
30743;SDS011;17486;46.738;7.622;2022-09-12T01:26:14;2.78;;;1.05;;
30743;SDS011;17486;46.738;7.622;2022-09-12T01:31:42;1.23;;;1.13;;
30743;SDS011;17486;46.738;7.622;2022-09-12T01:34:22;1.73;;;0.95;;
30743;SDS011;17486;46.738;7.622;2022-09-12T01:37:00;1.52;;;1.10;;
30743;SDS011;17486;46.738;7.622;2022-09-12T01:42:40;1.05;;;0.93;;
30743;SDS011;17486;46.738;7.622;2022-09-12T01:45:17;0.90;;;0.90;;
30743;SDS011;17486;46.738;7.622;2022-09-12T01:48:05;1.25;;;1.00;;
30743;SDS011;17486;46.738;7.622;2022-09-12T01:50:39;3.50;;;1.38;;
30743;SDS011;17486;46.738;7.622;2022-09-12T01:53:12;1.65;;;1.02;;
30743;SDS011;17486;46.738;7.622;2022-09-12T01:55:45;1.40;;;0.93;;
30743;SDS011;17486;46.738;7.622;2022-09-12T01:58:20;1.43;;;1.00;;
30743;SDS011;17486;46.738;7.622;2022-09-12T02:01:01;2.65;;;1.10;;
30743;SDS011;17486;46.738;7.622;2022-09-12T02:03:31;2.42;;;0.80;;
30743;SDS011;17486;46.738;7.622;2022-09-12T02:06:05;1.10;;;1.00;;
30743;SDS011;17486;46.738;7.622;2022-09-12T02:08:38;1.15;;;1.00;;
30743;SDS011;17486;46.738;7.622;2022-09-12T02:11:09;2.13;;;1.00;;
30743;SDS011;17486;46.738;7.622;2022-09-12T02:16:08;1.38;;;1.02;;
30743;SDS011;17486;46.738;7.622;2022-09-12T02:18:39;2.90;;;1.00;;
30743;SDS011;17486;46.738;7.622;2022-09-12T02:21:09;1.70;;;1.15;;
30743;SDS011;17486;46.738;7.622;2022-09-12T02:23:35;1.33;;;1.23;;
30743;SDS011;17486;46.738;7.622;2022-09-12T02:26:09;2.67;;;1.20;;
30743;SDS011;17486;46.738;7.622;2022-09-12T02:28:43;2.40;;;1.80;;
30743;SDS011;17486;46.738;7.622;2022-09-12T02:39:12;2.38;;;1.15;;
30743;SDS011;17486;46.738;7.622;2022-09-12T02:41:37;5.03;;;1.30;;
30743;SDS011;17486;46.738;7.622;2022-09-12T02:44:03;1.98;;;1.20;;
30743;SDS011;17486;46.738;7.622;2022-09-12T02:46:37;1.30;;;1.10;;
30743;SDS011;17486;46.738;7.622;2022-09-12T02:49:06;2.70;;;1.50;;
30743;SDS011;17486;46.738;7.622;2022-09-12T02:51:32;1.67;;;1.38;;
30743;SDS011;17486;46.738;7.622;2022-09-12T02:53:58;1.67;;;1.23;;
30743;SDS011;17486;46.738;7.622;2022-09-12T02:56:28;1.90;;;1.23;;
30743;SDS011;17486;46.738;7.622;2022-09-12T02:58:55;1.55;;;1.35;;
30743;SDS011;17486;46.738;7.622;2022-09-12T03:04:28;1.52;;;1.42;;
30743;SDS011;17486;46.738;7.622;2022-09-12T03:07:15;1.30;;;1.20;;
30743;SDS011;17486;46.738;7.622;2022-09-12T03:09:52;1.55;;;1.45;;
30743;SDS011;17486;46.738;7.622;2022-09-12T03:15:21;2.97;;;1.42;;
30743;SDS011;17486;46.738;7.622;2022-09-12T03:18:00;2.15;;;1.95;;
30743;SDS011;17486;46.738;7.622;2022-09-12T03:26:19;1.95;;;1.55;;
30743;SDS011;17486;46.738;7.622;2022-09-12T03:28:50;2.42;;;1.35;;
30743;SDS011;17486;46.738;7.622;2022-09-12T03:31:18;2.25;;;1.35;;
30743;SDS011;17486;46.738;7.622;2022-09-12T03:33:44;1.58;;;1.40;;
30743;SDS011;17486;46.738;7.622;2022-09-12T03:36:14;1.83;;;1.50;;
30743;SDS011;17486;46.738;7.622;2022-09-12T03:38:43;3.88;;;1.27;;
30743;SDS011;17486;46.738;7.622;2022-09-12T03:41:09;1.88;;;1.52;;
30743;SDS011;17486;46.738;7.622;2022-09-12T03:43:34;2.70;;;1.85;;
30743;SDS011;17486;46.738;7.622;2022-09-12T03:45:59;1.83;;;1.40;;
30743;SDS011;17486;46.738;7.622;2022-09-12T03:48:25;1.55;;;1.45;;
30743;SDS011;17486;46.738;7.622;2022-09-12T03:50:50;1.88;;;1.55;;
30743;SDS011;17486;46.738;7.622;2022-09-12T03:53:15;2.85;;;1.48;;
30743;SDS011;17486;46.738;7.622;2022-09-12T03:55:41;4.20;;;1.80;;
30743;SDS011;17486;46.738;7.622;2022-09-12T03:58:06;2.03;;;1.40;;
30743;SDS011;17486;46.738;7.622;2022-09-12T04:00:32;2.97;;;1.50;;
30743;SDS011;17486;46.738;7.622;2022-09-12T04:02:57;1.65;;;1.55;;
30743;SDS011;17486;46.738;7.622;2022-09-12T04:05:23;3.03;;;1.63;;
30743;SDS011;17486;46.738;7.622;2022-09-12T04:07:49;1.63;;;1.27;;
30743;SDS011;17486;46.738;7.622;2022-09-12T04:10:15;1.70;;;1.60;;
30743;SDS011;17486;46.738;7.622;2022-09-12T04:12:41;2.33;;;1.58;;
30743;SDS011;17486;46.738;7.622;2022-09-12T04:15:07;2.47;;;1.90;;
30743;SDS011;17486;46.738;7.622;2022-09-12T04:17:33;2.92;;;1.60;;
30743;SDS011;17486;46.738;7.622;2022-09-12T04:19:59;2.88;;;1.77;;
30743;SDS011;17486;46.738;7.622;2022-09-12T04:22:25;2.83;;;1.50;;
30743;SDS011;17486;46.738;7.622;2022-09-12T04:24:51;2.85;;;1.42;;
30743;SDS011;17486;46.738;7.622;2022-09-12T04:27:16;3.55;;;1.70;;
30743;SDS011;17486;46.738;7.622;2022-09-12T04:29:41;1.60;;;1.45;;
30743;SDS011;17486;46.738;7.622;2022-09-12T04:32:07;1.55;;;1.45;;
30743;SDS011;17486;46.738;7.622;2022-09-12T04:34:33;1.60;;;1.50;;
30743;SDS011;17486;46.738;7.622;2022-09-12T04:36:58;1.70;;;1.60;;
30743;SDS011;17486;46.738;7.622;2022-09-12T04:39:24;3.63;;;1.70;;
30743;SDS011;17486;46.738;7.622;2022-09-12T04:41:49;1.75;;;1.52;;
30743;SDS011;17486;46.738;7.622;2022-09-12T04:44:15;2.03;;;1.83;;
30743;SDS011;17486;46.738;7.622;2022-09-12T04:46:42;2.35;;;1.60;;
30743;SDS011;17486;46.738;7.622;2022-09-12T04:49:10;3.08;;;1.50;;
30743;SDS011;17486;46.738;7.622;2022-09-12T04:51:37;1.50;;;1.40;;
30743;SDS011;17486;46.738;7.622;2022-09-12T04:54:04;2.97;;;1.95;;
30743;SDS011;17486;46.738;7.622;2022-09-12T04:56:36;1.38;;;1.20;;
30743;SDS011;17486;46.738;7.622;2022-09-12T04:59:03;5.75;;;1.60;;
30743;SDS011;17486;46.738;7.622;2022-09-12T05:01:29;3.97;;;1.40;;
30743;SDS011;17486;46.738;7.622;2022-09-12T05:03:54;1.90;;;1.70;;
30743;SDS011;17486;46.738;7.622;2022-09-12T05:06:25;3.88;;;1.60;;
30743;SDS011;17486;46.738;7.622;2022-09-12T05:08:55;1.90;;;1.60;;
30743;SDS011;17486;46.738;7.622;2022-09-12T05:11:23;2.58;;;1.40;;
30743;SDS011;17486;46.738;7.622;2022-09-12T05:13:50;4.03;;;1.65;;
30743;SDS011;17486;46.738;7.622;2022-09-12T05:16:17;3.17;;;1.55;;
30743;SDS011;17486;46.738;7.622;2022-09-12T05:18:43;4.40;;;1.65;;
30743;SDS011;17486;46.738;7.622;2022-09-12T05:21:11;4.10;;;1.48;;
30743;SDS011;17486;46.738;7.622;2022-09-12T05:23:38;3.70;;;1.80;;
30743;SDS011;17486;46.738;7.622;2022-09-12T05:26:04;3.33;;;1.80;;
30743;SDS011;17486;46.738;7.622;2022-09-12T05:28:32;2.05;;;1.85;;
30743;SDS011;17486;46.738;7.622;2022-09-12T05:33:33;2.53;;;1.73;;
30743;SDS011;17486;46.738;7.622;2022-09-12T05:36:02;2.97;;;1.60;;
30743;SDS011;17486;46.738;7.622;2022-09-12T05:38:28;2.35;;;1.50;;
30743;SDS011;17486;46.738;7.622;2022-09-12T05:41:01;3.20;;;1.50;;
30743;SDS011;17486;46.738;7.622;2022-09-12T05:43:32;3.53;;;1.52;;
30743;SDS011;17486;46.738;7.622;2022-09-12T05:46:02;1.88;;;1.42;;
30743;SDS011;17486;46.738;7.622;2022-09-12T05:48:37;1.65;;;1.30;;
30743;SDS011;17486;46.738;7.622;2022-09-12T05:51:06;2.10;;;1.52;;
30743;SDS011;17486;46.738;7.622;2022-09-12T05:53:41;1.30;;;1.20;;
30743;SDS011;17486;46.738;7.622;2022-09-12T05:56:11;3.30;;;1.70;;
30743;SDS011;17486;46.738;7.622;2022-09-12T05:58:39;2.30;;;1.60;;
30743;SDS011;17486;46.738;7.622;2022-09-12T06:01:06;4.10;;;1.60;;
30743;SDS011;17486;46.738;7.622;2022-09-12T06:04:10;2.88;;;1.52;;
30743;SDS011;17486;46.738;7.622;2022-09-12T06:06:30;3.00;;;1.55;;
30743;SDS011;17486;46.738;7.622;2022-09-12T06:08:57;3.35;;;1.50;;
30743;SDS011;17486;46.738;7.622;2022-09-12T06:11:25;2.53;;;1.52;;
30743;SDS011;17486;46.738;7.622;2022-09-12T06:13:52;3.95;;;1.30;;
30743;SDS011;17486;46.738;7.622;2022-09-12T06:16:20;4.25;;;2.00;;
30743;SDS011;17486;46.738;7.622;2022-09-12T06:18:51;2.63;;;1.80;;
30743;SDS011;17486;46.738;7.622;2022-09-12T06:21:18;3.05;;;1.90;;
30743;SDS011;17486;46.738;7.622;2022-09-12T06:23:44;3.17;;;2.08;;
30743;SDS011;17486;46.738;7.622;2022-09-12T06:26:11;1.70;;;1.50;;
30743;SDS011;17486;46.738;7.622;2022-09-12T06:28:38;3.10;;;1.73;;
30743;SDS011;17486;46.738;7.622;2022-09-12T06:31:06;2.10;;;1.40;;
30743;SDS011;17486;46.738;7.622;2022-09-12T06:33:35;2.22;;;1.42;;
30743;SDS011;17486;46.738;7.622;2022-09-12T06:36:06;4.78;;;1.70;;
30743;SDS011;17486;46.738;7.622;2022-09-12T06:41:02;3.90;;;1.60;;
30743;SDS011;17486;46.738;7.622;2022-09-12T06:43:29;3.40;;;1.30;;
30743;SDS011;17486;46.738;7.622;2022-09-12T06:45:55;2.85;;;1.25;;
30743;SDS011;17486;46.738;7.622;2022-09-12T06:48:21;2.40;;;1.00;;
30743;SDS011;17486;46.738;7.622;2022-09-12T06:50:59;2.88;;;1.35;;
30743;SDS011;17486;46.738;7.622;2022-09-12T06:53:26;3.78;;;1.23;;
30743;SDS011;17486;46.738;7.622;2022-09-12T06:56:03;1.05;;;1.00;;
30743;SDS011;17486;46.738;7.622;2022-09-12T06:58:33;1.85;;;1.30;;
30743;SDS011;17486;46.738;7.622;2022-09-12T07:01:00;3.50;;;1.38;;
30743;SDS011;17486;46.738;7.622;2022-09-12T07:03:29;1.35;;;1.15;;
30743;SDS011;17486;46.738;7.622;2022-09-12T07:05:56;2.30;;;1.10;;
30743;SDS011;17486;46.738;7.622;2022-09-12T07:08:21;2.47;;;1.13;;
30743;SDS011;17486;46.738;7.622;2022-09-12T07:10:47;1.40;;;1.27;;
30743;SDS011;17486;46.738;7.622;2022-09-12T07:13:12;1.30;;;1.20;;
30743;SDS011;17486;46.738;7.622;2022-09-12T07:15:38;4.13;;;1.30;;
30743;SDS011;17486;46.738;7.622;2022-09-12T07:18:04;2.25;;;1.30;;
30743;SDS011;17486;46.738;7.622;2022-09-12T07:20:30;2.45;;;2.00;;
30743;SDS011;17486;46.738;7.622;2022-09-12T07:22:58;3.08;;;2.03;;
30743;SDS011;17486;46.738;7.622;2022-09-12T07:25:24;2.45;;;2.00;;
30743;SDS011;17486;46.738;7.622;2022-09-12T07:27:51;2.90;;;1.95;;
30743;SDS011;17486;46.738;7.622;2022-09-12T07:30:16;3.22;;;2.08;;
30743;SDS011;17486;46.738;7.622;2022-09-12T07:32:42;3.17;;;2.00;;
30743;SDS011;17486;46.738;7.622;2022-09-12T07:35:07;2.55;;;1.70;;
30743;SDS011;17486;46.738;7.622;2022-09-12T07:37:33;2.22;;;1.50;;
30743;SDS011;17486;46.738;7.622;2022-09-12T07:39:58;2.72;;;1.38;;
30743;SDS011;17486;46.738;7.622;2022-09-12T07:42:23;4.40;;;1.50;;
30743;SDS011;17486;46.738;7.622;2022-09-12T07:44:49;1.70;;;1.15;;
30743;SDS011;17486;46.738;7.622;2022-09-12T07:47:16;2.33;;;1.42;;
30743;SDS011;17486;46.738;7.622;2022-09-12T07:49:42;2.38;;;1.58;;
30743;SDS011;17486;46.738;7.622;2022-09-12T07:52:08;2.70;;;1.85;;
30743;SDS011;17486;46.738;7.622;2022-09-12T07:54:33;1.85;;;1.50;;
30743;SDS011;17486;46.738;7.622;2022-09-12T07:56:58;3.10;;;1.88;;
30743;SDS011;17486;46.738;7.622;2022-09-12T07:59:24;3.03;;;1.00;;
30743;SDS011;17486;46.738;7.622;2022-09-12T08:01:49;2.22;;;1.13;;
30743;SDS011;17486;46.738;7.622;2022-09-12T08:04:15;1.92;;;0.90;;
30743;SDS011;17486;46.738;7.622;2022-09-12T08:06:41;1.75;;;0.90;;
30743;SDS011;17486;46.738;7.622;2022-09-12T08:09:06;3.45;;;1.25;;
30743;SDS011;17486;46.738;7.622;2022-09-12T08:11:32;0.95;;;0.80;;
30743;SDS011;17486;46.738;7.622;2022-09-12T08:13:57;1.73;;;0.90;;
30743;SDS011;17486;46.738;7.622;2022-09-12T08:16:26;1.80;;;1.00;;
30743;SDS011;17486;46.738;7.622;2022-09-12T08:18:53;1.00;;;0.90;;
30743;SDS011;17486;46.738;7.622;2022-09-12T08:21:29;2.17;;;0.90;;
30743;SDS011;17486;46.738;7.622;2022-09-12T08:23:57;1.35;;;0.85;;
30743;SDS011;17486;46.738;7.622;2022-09-12T08:26:27;1.52;;;1.05;;
30743;SDS011;17486;46.738;7.622;2022-09-12T08:28:54;1.27;;;0.70;;
30743;SDS011;17486;46.738;7.622;2022-09-12T08:31:20;2.60;;;1.10;;
30743;SDS011;17486;46.738;7.622;2022-09-12T08:33:47;1.65;;;0.80;;
30743;SDS011;17486;46.738;7.622;2022-09-12T08:36:14;1.52;;;1.10;;
30743;SDS011;17486;46.738;7.622;2022-09-12T08:38:42;1.90;;;0.52;;
30743;SDS011;17486;46.738;7.622;2022-09-12T08:51:47;3.22;;;1.67;;
30743;SDS011;17486;46.738;7.622;2022-09-12T08:54:23;2.63;;;1.50;;
30743;SDS011;17486;46.738;7.622;2022-09-12T08:56:53;3.72;;;1.00;;
30743;SDS011;17486;46.738;7.622;2022-09-12T08:59:25;1.77;;;1.00;;
30743;SDS011;17486;46.738;7.622;2022-09-12T09:01:53;3.92;;;0.85;;
30743;SDS011;17486;46.738;7.622;2022-09-12T09:17:46;2.30;;;0.98;;
30743;SDS011;17486;46.738;7.622;2022-09-12T09:22:50;2.42;;;1.20;;
30743;SDS011;17486;46.738;7.622;2022-09-12T09:25:20;1.35;;;0.88;;
30743;SDS011;17486;46.738;7.622;2022-09-12T09:28:09;2.38;;;0.70;;
30743;SDS011;17486;46.738;7.622;2022-09-12T09:30:41;1.58;;;0.75;;
30743;SDS011;17486;46.738;7.622;2022-09-12T09:33:09;2.15;;;1.00;;
30743;SDS011;17486;46.738;7.622;2022-09-12T09:35:43;2.03;;;0.90;;
30743;SDS011;17486;46.738;7.622;2022-09-12T09:38:15;1.00;;;0.90;;
30743;SDS011;17486;46.738;7.622;2022-09-12T09:43:36;1.50;;;1.00;;
30743;SDS011;17486;46.738;7.622;2022-09-12T09:46:02;1.30;;;0.90;;
30743;SDS011;17486;46.738;7.622;2022-09-12T09:48:32;3.65;;;1.02;;
30743;SDS011;17486;46.738;7.622;2022-09-12T09:51:00;2.65;;;0.95;;
30743;SDS011;17486;46.738;7.622;2022-09-12T09:55:55;3.45;;;1.10;;
30743;SDS011;17486;46.738;7.622;2022-09-12T09:58:27;2.00;;;0.97;;
30743;SDS011;17486;46.738;7.622;2022-09-12T10:00:57;4.68;;;0.98;;
30743;SDS011;17486;46.738;7.622;2022-09-12T10:05:56;2.78;;;0.70;;
30743;SDS011;17486;46.738;7.622;2022-09-12T10:08:27;2.27;;;1.20;;
30743;SDS011;17486;46.738;7.622;2022-09-12T10:11:05;4.30;;;0.90;;
30743;SDS011;17486;46.738;7.622;2022-09-12T10:16:06;2.47;;;1.17;;
30743;SDS011;17486;46.738;7.622;2022-09-12T10:18:43;2.17;;;0.95;;
30743;SDS011;17486;46.738;7.622;2022-09-12T10:21:13;2.25;;;1.00;;
30743;SDS011;17486;46.738;7.622;2022-09-12T10:23:41;2.45;;;1.00;;
30743;SDS011;17486;46.738;7.622;2022-09-12T10:26:08;1.60;;;0.90;;
30743;SDS011;17486;46.738;7.622;2022-09-12T10:28:38;1.30;;;1.05;;
30743;SDS011;17486;46.738;7.622;2022-09-12T10:31:06;2.20;;;0.90;;
30743;SDS011;17486;46.738;7.622;2022-09-12T10:33:38;1.98;;;1.00;;
30743;SDS011;17486;46.738;7.622;2022-09-12T10:36:16;1.75;;;1.17;;
30743;SDS011;17486;46.738;7.622;2022-09-12T10:38:56;3.25;;;0.90;;
30743;SDS011;17486;46.738;7.622;2022-09-12T10:41:23;1.83;;;1.02;;
30743;SDS011;17486;46.738;7.622;2022-09-12T10:43:49;0.82;;;0.82;;
30743;SDS011;17486;46.738;7.622;2022-09-12T10:48:40;1.08;;;0.80;;
30743;SDS011;17486;46.738;7.622;2022-09-12T10:53:47;2.03;;;0.90;;
30743;SDS011;17486;46.738;7.622;2022-09-12T10:56:18;2.75;;;1.00;;
30743;SDS011;17486;46.738;7.622;2022-09-12T11:09:40;1.80;;;1.08;;
30743;SDS011;17486;46.738;7.622;2022-09-12T11:12:18;1.05;;;0.95;;
30743;SDS011;17486;46.738;7.622;2022-09-12T11:15:13;1.05;;;0.85;;
30743;SDS011;17486;46.738;7.622;2022-09-12T11:20:48;1.40;;;0.80;;
30743;SDS011;17486;46.738;7.622;2022-09-12T11:26:29;1.80;;;0.98;;
30743;SDS011;17486;46.738;7.622;2022-09-12T11:34:36;1.95;;;0.90;;
30743;SDS011;17486;46.738;7.622;2022-09-12T11:37:25;0.60;;;0.60;;
30743;SDS011;17486;46.738;7.622;2022-09-12T11:39:55;1.80;;;0.90;;
30743;SDS011;17486;46.738;7.622;2022-09-12T11:42:32;3.63;;;1.25;;
30743;SDS011;17486;46.738;7.622;2022-09-12T11:45:08;1.60;;;1.25;;
30743;SDS011;17486;46.738;7.622;2022-09-12T11:47:39;2.38;;;1.73;;
30743;SDS011;17486;46.738;7.622;2022-09-12T11:50:20;3.67;;;1.08;;
30743;SDS011;17486;46.738;7.622;2022-09-12T11:52:51;1.42;;;0.88;;
30743;SDS011;17486;46.738;7.622;2022-09-12T11:55:24;1.67;;;0.90;;
30743;SDS011;17486;46.738;7.622;2022-09-12T11:57:55;0.73;;;0.65;;
30743;SDS011;17486;46.738;7.622;2022-09-12T12:00:46;1.50;;;0.70;;
30743;SDS011;17486;46.738;7.622;2022-09-12T12:08:44;3.78;;;1.00;;
30743;SDS011;17486;46.738;7.622;2022-09-12T12:11:11;0.70;;;0.70;;
30743;SDS011;17486;46.738;7.622;2022-09-12T12:13:40;0.73;;;0.68;;
30743;SDS011;17486;46.738;7.622;2022-09-12T12:18:59;2.20;;;0.93;;
30743;SDS011;17486;46.738;7.622;2022-09-12T12:24:37;0.95;;;0.70;;
30743;SDS011;17486;46.738;7.622;2022-09-12T12:34:44;1.48;;;0.70;;
30743;SDS011;17486;46.738;7.622;2022-09-12T12:39:56;1.50;;;0.80;;
30743;SDS011;17486;46.738;7.622;2022-09-12T12:44:57;3.50;;;0.80;;
30743;SDS011;17486;46.738;7.622;2022-09-12T12:49:54;1.60;;;0.90;;
30743;SDS011;17486;46.738;7.622;2022-09-12T12:52:23;2.10;;;0.70;;
30743;SDS011;17486;46.738;7.622;2022-09-12T12:54:53;0.90;;;0.90;;
30743;SDS011;17486;46.738;7.622;2022-09-12T12:57:30;1.45;;;0.70;;
30743;SDS011;17486;46.738;7.622;2022-09-12T13:00:04;1.20;;;0.90;;
30743;SDS011;17486;46.738;7.622;2022-09-12T13:02:31;1.80;;;0.93;;
30743;SDS011;17486;46.738;7.622;2022-09-12T13:05:02;2.92;;;0.77;;
30743;SDS011;17486;46.738;7.622;2022-09-12T13:07:37;1.75;;;0.70;;
30743;SDS011;17486;46.738;7.622;2022-09-12T13:10:04;1.17;;;1.10;;
30743;SDS011;17486;46.738;7.622;2022-09-12T13:12:44;1.40;;;0.65;;
30743;SDS011;17486;46.738;7.622;2022-09-12T13:15:28;1.02;;;0.68;;
30743;SDS011;17486;46.738;7.622;2022-09-12T13:18:00;2.30;;;0.90;;
30743;SDS011;17486;46.738;7.622;2022-09-12T13:23:37;1.42;;;0.80;;
30743;SDS011;17486;46.738;7.622;2022-09-12T13:26:07;2.28;;;0.77;;
30743;SDS011;17486;46.738;7.622;2022-09-12T13:28:35;1.17;;;0.77;;
30743;SDS011;17486;46.738;7.622;2022-09-12T13:39:26;0.85;;;0.70;;
30743;SDS011;17486;46.738;7.622;2022-09-12T13:44:52;1.77;;;0.90;;
30743;SDS011;17486;46.738;7.622;2022-09-12T13:47:24;1.00;;;0.90;;
30743;SDS011;17486;46.738;7.622;2022-09-12T13:49:54;0.82;;;0.82;;
30743;SDS011;17486;46.738;7.622;2022-09-12T13:52:22;1.83;;;1.02;;
30743;SDS011;17486;46.738;7.622;2022-09-12T13:54:52;1.05;;;0.93;;
30743;SDS011;17486;46.738;7.622;2022-09-12T13:57:31;0.80;;;0.80;;
30743;SDS011;17486;46.738;7.622;2022-09-12T14:00:03;1.90;;;1.10;;
30743;SDS011;17486;46.738;7.622;2022-09-12T14:02:38;1.23;;;0.90;;
30743;SDS011;17486;46.738;7.622;2022-09-12T14:05:16;1.52;;;0.90;;
30743;SDS011;17486;46.738;7.622;2022-09-12T14:10:24;2.13;;;0.98;;
30743;SDS011;17486;46.738;7.622;2022-09-12T14:15:23;0.90;;;0.90;;
30743;SDS011;17486;46.738;7.622;2022-09-12T14:17:52;1.48;;;0.90;;
30743;SDS011;17486;46.738;7.622;2022-09-12T14:20:26;3.20;;;1.20;;
30743;SDS011;17486;46.738;7.622;2022-09-12T14:25:42;2.17;;;0.80;;
30743;SDS011;17486;46.738;7.622;2022-09-12T14:28:12;1.70;;;0.80;;
30743;SDS011;17486;46.738;7.622;2022-09-12T14:30:39;1.88;;;1.27;;
30743;SDS011;17486;46.738;7.622;2022-09-12T14:35:45;1.30;;;0.93;;
30743;SDS011;17486;46.738;7.622;2022-09-12T14:40:57;2.85;;;1.10;;
30743;SDS011;17486;46.738;7.622;2022-09-12T14:45:54;38.65;;;35.08;;
30743;SDS011;17486;46.738;7.622;2022-09-12T14:48:23;71.47;;;64.00;;
30743;SDS011;17486;46.738;7.622;2022-09-12T14:50:51;52.08;;;47.22;;
30743;SDS011;17486;46.738;7.622;2022-09-12T14:55:50;3.90;;;3.50;;
30743;SDS011;17486;46.738;7.622;2022-09-12T15:03:47;3.35;;;3.05;;
30743;SDS011;17486;46.738;7.622;2022-09-12T15:06:22;2.78;;;2.58;;
30743;SDS011;17486;46.738;7.622;2022-09-12T15:08:56;2.33;;;2.13;;
30743;SDS011;17486;46.738;7.622;2022-09-12T15:11:24;2.63;;;2.42;;
30743;SDS011;17486;46.738;7.622;2022-09-12T15:13:50;1.95;;;1.70;;
30743;SDS011;17486;46.738;7.622;2022-09-12T15:16:16;2.50;;;1.48;;
30743;SDS011;17486;46.738;7.622;2022-09-12T15:18:42;2.85;;;1.55;;
30743;SDS011;17486;46.738;7.622;2022-09-12T15:21:10;2.60;;;1.00;;
30743;SDS011;17486;46.738;7.622;2022-09-12T15:23:44;2.78;;;1.13;;
30743;SDS011;17486;46.738;7.622;2022-09-12T15:26:13;1.60;;;1.20;;
30743;SDS011;17486;46.738;7.622;2022-09-12T15:28:41;2.47;;;1.10;;
30743;SDS011;17486;46.738;7.622;2022-09-12T15:31:28;3.28;;;1.27;;
30743;SDS011;17486;46.738;7.622;2022-09-12T15:33:53;1.38;;;1.05;;
30743;SDS011;17486;46.738;7.622;2022-09-12T15:36:21;1.70;;;1.27;;
30743;SDS011;17486;46.738;7.622;2022-09-12T15:38:48;118.05;;;105.03;;
30743;SDS011;17486;46.738;7.622;2022-09-12T15:41:16;282.58;;;254.07;;
30743;SDS011;17486;46.738;7.622;2022-09-12T15:43:44;127.07;;;113.60;;
30743;SDS011;17486;46.738;7.622;2022-09-12T15:46:11;35.13;;;31.70;;
30743;SDS011;17486;46.738;7.622;2022-09-12T15:48:38;16.42;;;14.82;;
30743;SDS011;17486;46.738;7.622;2022-09-12T15:51:04;11.25;;;9.40;;
30743;SDS011;17486;46.738;7.622;2022-09-12T15:53:34;10.35;;;8.90;;
30743;SDS011;17486;46.738;7.622;2022-09-12T15:55:59;7.57;;;6.20;;
30743;SDS011;17486;46.738;7.622;2022-09-12T15:58:24;5.30;;;4.80;;
30743;SDS011;17486;46.738;7.622;2022-09-12T16:00:50;3.40;;;3.10;;
30743;SDS011;17486;46.738;7.622;2022-09-12T16:03:25;4.32;;;2.70;;
30743;SDS011;17486;46.738;7.622;2022-09-12T16:05:57;2.50;;;2.10;;
30743;SDS011;17486;46.738;7.622;2022-09-12T16:08:25;2.88;;;1.95;;
30743;SDS011;17486;46.738;7.622;2022-09-12T16:10:54;2.28;;;2.00;;
30743;SDS011;17486;46.738;7.622;2022-09-12T16:13:22;1.48;;;1.38;;
30743;SDS011;17486;46.738;7.622;2022-09-12T16:15:48;3.13;;;2.58;;
30743;SDS011;17486;46.738;7.622;2022-09-12T16:18:14;4.15;;;3.25;;
30743;SDS011;17486;46.738;7.622;2022-09-12T16:20:40;3.17;;;2.45;;
30743;SDS011;17486;46.738;7.622;2022-09-12T16:23:06;3.60;;;3.30;;
30743;SDS011;17486;46.738;7.622;2022-09-12T16:25:33;5.40;;;3.50;;
30743;SDS011;17486;46.738;7.622;2022-09-12T16:27:58;2.67;;;2.47;;
30743;SDS011;17486;46.738;7.622;2022-09-12T16:30:25;2.28;;;2.00;;
30743;SDS011;17486;46.738;7.622;2022-09-12T16:32:50;1.65;;;1.30;;
30743;SDS011;17486;46.738;7.622;2022-09-12T16:35:16;1.88;;;1.60;;
30743;SDS011;17486;46.738;7.622;2022-09-12T16:37:42;1.40;;;1.30;;
30743;SDS011;17486;46.738;7.622;2022-09-12T16:40:07;2.55;;;1.40;;
30743;SDS011;17486;46.738;7.622;2022-09-12T16:42:33;1.73;;;1.20;;
30743;SDS011;17486;46.738;7.622;2022-09-12T16:44:59;2.85;;;1.50;;
30743;SDS011;17486;46.738;7.622;2022-09-12T16:47:25;1.58;;;1.13;;
30743;SDS011;17486;46.738;7.622;2022-09-12T16:49:50;1.17;;;1.15;;
30743;SDS011;17486;46.738;7.622;2022-09-12T16:52:16;2.08;;;0.90;;
30743;SDS011;17486;46.738;7.622;2022-09-12T16:54:43;1.38;;;1.27;;
30743;SDS011;17486;46.738;7.622;2022-09-12T16:57:09;2.22;;;1.30;;
30743;SDS011;17486;46.738;7.622;2022-09-12T16:59:35;1.58;;;1.17;;
30743;SDS011;17486;46.738;7.622;2022-09-12T17:02:00;2.08;;;1.17;;
30743;SDS011;17486;46.738;7.622;2022-09-12T17:04:27;1.38;;;1.02;;
30743;SDS011;17486;46.738;7.622;2022-09-12T17:06:52;1.20;;;1.10;;
30743;SDS011;17486;46.738;7.622;2022-09-12T17:09:18;2.95;;;1.20;;
30743;SDS011;17486;46.738;7.622;2022-09-12T17:11:44;1.20;;;1.10;;
30743;SDS011;17486;46.738;7.622;2022-09-12T17:14:14;1.38;;;1.00;;
30743;SDS011;17486;46.738;7.622;2022-09-12T17:16:41;2.35;;;1.20;;
30743;SDS011;17486;46.738;7.622;2022-09-12T17:19:16;1.95;;;1.10;;
30743;SDS011;17486;46.738;7.622;2022-09-12T17:21:46;1.30;;;1.20;;
30743;SDS011;17486;46.738;7.622;2022-09-12T17:24:14;2.72;;;1.30;;
30743;SDS011;17486;46.738;7.622;2022-09-12T17:26:41;1.63;;;1.33;;
30743;SDS011;17486;46.738;7.622;2022-09-12T17:29:06;2.92;;;1.20;;
30743;SDS011;17486;46.738;7.622;2022-09-12T17:31:32;3.70;;;1.58;;
30743;SDS011;17486;46.738;7.622;2022-09-12T17:33:58;3.05;;;1.48;;
30743;SDS011;17486;46.738;7.622;2022-09-12T17:36:25;2.65;;;1.38;;
30743;SDS011;17486;46.738;7.622;2022-09-12T17:38:51;1.95;;;1.27;;
30743;SDS011;17486;46.738;7.622;2022-09-12T17:41:19;3.05;;;1.35;;
30743;SDS011;17486;46.738;7.622;2022-09-12T17:43:47;1.38;;;1.20;;
30743;SDS011;17486;46.738;7.622;2022-09-12T17:46:14;1.60;;;1.50;;
30743;SDS011;17486;46.738;7.622;2022-09-12T17:48:49;2.72;;;1.38;;